Time;durP1;ratioP1;P1;durP2;ratioP2;P2;SDS_P1;SDS_P2;PMS_P1;PMS_P2;Temp;Humidity;BMP_temperature;BMP_pressure;BME280_temperature;BME280_humidity;BME280_pressure;Samples;Min_cycle;Max_cycle;Signal;HPM_P1;HPM_P2
2022/08/13 00:02:17;;;;;;;19.70;10.88;;;28.30;86.60;;;;;;5116587;28;20080;-74
2022/08/13 00:05:00;;;;;;;25.15;10.82;;;28.20;87.40;;;;;;5115962;28;20035;-75
2022/08/13 00:07:26;;;;;;;15.75;9.77;;;28.10;88.20;;;;;;5117774;28;20024;-74
2022/08/13 00:09:53;;;;;;;23.58;10.07;;;28.00;88.90;;;;;;5118108;28;20076;-74
2022/08/13 00:15:16;;;;;;;22.58;9.20;;;27.90;90.10;;;;;;5103593;28;20111;-74
2022/08/13 00:17:43;;;;;;;12.25;8.98;;;27.80;90.70;;;;;;5116199;28;20020;-75
2022/08/13 00:20:11;;;;;;;11.65;7.28;;;27.70;91.90;;;;;;5117840;28;20693;-74
2022/08/13 00:22:37;;;;;;;14.90;8.65;;;27.60;92.80;;;;;;5116370;28;20032;-75
2022/08/13 00:25:06;;;;;;;15.40;8.20;;;27.40;93.50;;;;;;5115185;28;20055;-75
2022/08/13 00:27:32;;;;;;;18.02;7.90;;;27.30;94.40;;;;;;5114774;28;20031;-75
2022/08/13 00:29:58;;;;;;;12.88;8.90;;;27.10;95.10;;;;;;5117464;28;20105;-75
2022/08/13 00:32:31;;;;;;;18.13;8.65;;;27.00;96.30;;;;;;5116328;28;20016;-76
2022/08/13 00:34:59;;;;;;;12.82;8.25;;;26.90;96.80;;;;;;5117470;28;20015;-75
2022/08/13 00:37:26;;;;;;;18.02;9.52;;;26.70;97.80;;;;;;5117796;28;20050;-74
2022/08/13 00:39:55;;;;;;;11.75;9.10;;;26.60;99.00;;;;;;5114825;28;20019;-75
2022/08/13 00:42:22;;;;;;;13.07;8.38;;;26.40;99.90;;;;;;5117734;28;20071;-74
2022/08/13 00:44:48;;;;;;;15.60;9.73;;;26.30;99.90;;;;;;5117125;28;20460;-74
2022/08/13 00:50:00;;;;;;;16.52;9.18;;;26.00;99.90;;;;;;5117291;28;20096;-75
2022/08/13 00:52:30;;;;;;;17.45;10.82;;;25.80;99.90;;;;;;5117500;28;20026;-74
2022/08/13 00:54:59;;;;;;;;;;;25.60;99.90;;;;;;5117752;28;20011;-75
2022/08/13 00:57:28;;;;;;;15.95;11.57;;;25.50;99.90;;;;;;5116141;28;19910;-75
2022/08/13 00:59:55;;;;;;;18.77;10.70;;;25.40;99.90;;;;;;5117243;28;20106;-72
2022/08/13 01:02:21;;;;;;;12.80;9.70;;;25.20;99.90;;;;;;5117264;28;20020;-74
2022/08/13 01:04:48;;;;;;;17.08;10.23;;;25.10;99.90;;;;;;5115895;28;20028;-74
2022/08/13 01:07:20;;;;;;;16.50;11.07;;;25.00;99.90;;;;;;5117291;28;20064;-74
2022/08/13 01:09:46;;;;;;;18.48;10.48;;;24.90;99.90;;;;;;5117265;28;20049;-75
2022/08/13 01:12:14;;;;;;;15.75;9.93;;;24.90;99.90;;;;;;5116947;28;20038;-75
2022/08/13 01:14:41;;;;;;;19.67;10.90;;;24.80;99.90;;;;;;5116925;28;20019;-74
2022/08/13 01:17:08;;;;;;;15.63;9.32;;;24.70;99.90;;;;;;5115627;28;20020;-75
2022/08/13 01:19:39;;;;;;;16.00;10.02;;;24.60;99.90;;;;;;5117363;28;20030;-74
2022/08/13 01:22:05;;;;;;;14.27;9.98;;;24.50;99.90;;;;;;5115516;28;20023;-74
2022/08/13 01:24:31;;;;;;;18.13;10.38;;;24.40;99.90;;;;;;5116955;28;20047;-75
2022/08/13 01:26:58;;;;;;;17.13;10.70;;;24.30;99.90;;;;;;5116467;28;20023;-74
2022/08/13 01:29:25;;;;;;;16.38;9.77;;;24.20;99.90;;;;;;5117015;28;20019;-75
2022/08/13 01:31:51;;;;;;;13.85;10.50;;;24.10;99.90;;;;;;5116886;28;20023;-74
2022/08/13 01:34:18;;;;;;;18.70;11.50;;;23.90;99.90;;;;;;5117135;28;20004;-74
2022/08/13 01:36:46;;;;;;;21.98;10.88;;;23.80;99.90;;;;;;5116099;28;20055;-74
2022/08/13 01:39:13;;;;;;;18.10;12.25;;;23.80;99.90;;;;;;5117113;28;20032;-74
2022/08/13 01:41:39;;;;;;;17.45;12.07;;;23.60;99.90;;;;;;5116950;28;20514;-75
2022/08/13 01:44:06;;;;;;;19.55;12.40;;;23.60;99.90;;;;;;5116769;28;20019;-74
2022/08/13 01:50:29;;;;;;;17.45;13.55;;;23.50;99.90;;;;;;5116748;28;20032;-75
2022/08/13 01:52:08;;;;;;;21.17;12.57;;;23.40;99.90;;;;;;5110412;28;20485;-75
2022/08/13 01:54:35;;;;;;;17.30;12.10;;;23.40;99.90;;;;;;5119623;27;20019;-75
2022/08/13 01:57:05;;;;;;;18.73;14.48;;;23.30;99.90;;;;;;5119278;28;20020;-74
2022/08/13 01:59:34;;;;;;;19.02;12.68;;;23.20;99.90;;;;;;5120112;28;20093;-75
2022/08/13 02:02:02;;;;;;;18.20;12.07;;;23.20;99.90;;;;;;5117932;28;20036;-74
2022/08/13 02:04:28;;;;;;;20.40;13.63;;;23.10;99.90;;;;;;5118904;28;20110;-75
2022/08/13 02:06:54;;;;;;;22.38;12.75;;;23.10;99.90;;;;;;5119595;28;20459;-74
2022/08/13 02:09:23;;;;;;;25.00;13.93;;;23.10;99.90;;;;;;5120595;28;20080;-75
2022/08/13 02:11:49;;;;;;;19.38;13.48;;;23.10;99.90;;;;;;5118479;28;20107;-75
2022/08/13 02:14:16;;;;;;;18.80;13.32;;;23.00;99.90;;;;;;5118650;28;20023;-75
2022/08/13 02:16:41;;;;;;;25.25;13.07;;;22.90;99.90;;;;;;5118999;28;20027;-74
2022/08/13 02:19:08;;;;;;;19.00;13.20;;;22.90;99.90;;;;;;5107796;28;20073;-74
2022/08/13 02:21:37;;;;;;;24.63;13.18;;;23.00;99.90;;;;;;5118734;28;20033;-74
2022/08/13 02:24:05;;;;;;;19.77;14.25;;;23.00;99.90;;;;;;5119526;27;20079;-74
2022/08/13 02:26:32;;;;;;;19.08;14.18;;;22.90;99.90;;;;;;5119517;28;20449;-74
2022/08/13 02:29:00;;;;;;;18.45;12.70;;;22.90;99.90;;;;;;5119685;28;20015;-74
2022/08/13 02:31:28;;;;;;;24.58;13.85;;;22.80;99.90;;;;;;5119779;28;20016;-75
2022/08/13 02:33:55;;;;;;;19.92;14.05;;;22.80;99.90;;;;;;5119652;28;20019;-75
2022/08/13 02:36:22;;;;;;;21.80;14.00;;;22.70;99.90;;;;;;5119717;28;20468;-74
2022/08/13 02:39:00;;;;;;;22.30;15.25;;;22.70;99.90;;;;;;5119670;28;20083;-74
2022/08/13 02:41:42;;;;;;;20.50;13.13;;;22.70;99.90;;;;;;5115586;28;20023;-73
2022/08/13 02:44:10;;;;;;;19.42;14.73;;;22.70;99.90;;;;;;5111547;28;20107;-74
2022/08/13 02:46:38;;;;;;;22.08;14.35;;;22.70;99.90;;;;;;5114804;28;20038;-74
2022/08/13 02:49:04;;;;;;;22.17;14.82;;;22.60;99.90;;;;;;5119246;28;20022;-74
2022/08/13 02:51:32;;;;;;;18.00;13.55;;;22.60;99.90;;;;;;5108358;27;20032;-74
2022/08/13 02:54:01;;;;;;;16.40;13.90;;;22.60;99.90;;;;;;5112514;28;20026;-74
2022/08/13 02:56:28;;;;;;;19.07;14.83;;;22.60;99.90;;;;;;5119367;28;20024;-75
2022/08/13 02:58:56;;;;;;;21.17;14.82;;;22.60;99.90;;;;;;5118586;28;20028;-74
2022/08/13 03:01:24;;;;;;;17.90;14.00;;;22.60;99.90;;;;;;5114854;28;20114;-75
2022/08/13 03:03:50;;;;;;;18.73;13.40;;;22.60;99.90;;;;;;5111592;28;20030;-74
2022/08/13 03:06:19;;;;;;;20.92;14.55;;;22.60;99.90;;;;;;5106453;28;20024;-75
2022/08/13 03:08:51;;;;;;;27.17;13.95;;;22.60;99.90;;;;;;5118608;28;20030;-75
2022/08/13 03:11:17;;;;;;;22.65;13.82;;;22.60;99.90;;;;;;5119164;28;20019;-74
2022/08/13 03:13:57;;;;;;;22.58;14.93;;;22.60;99.90;;;;;;5118711;28;20063;-74
2022/08/13 03:16:26;;;;;;;23.20;15.18;;;22.60;99.90;;;;;;5119135;28;20044;-74
2022/08/13 03:18:54;;;;;;;23.52;14.35;;;22.60;99.90;;;;;;5108641;28;20030;-74
2022/08/13 03:21:33;;;;;;;22.30;14.55;;;22.60;99.90;;;;;;5113697;28;20044;-74
2022/08/13 03:24:00;;;;;;;24.73;14.02;;;22.60;99.90;;;;;;5114129;28;20122;-75
2022/08/13 03:26:26;;;;;;;23.00;14.68;;;22.60;99.90;;;;;;5102913;28;20023;-75
2022/08/13 03:28:54;;;;;;;23.80;13.75;;;22.60;99.90;;;;;;5117242;28;20108;-74
2022/08/13 03:31:20;;;;;;;21.90;15.05;;;22.60;99.90;;;;;;5105856;28;20016;-75
2022/08/13 03:33:47;;;;;;;17.63;13.90;;;22.60;99.90;;;;;;5118417;28;20020;-75
2022/08/13 03:36:14;;;;;;;22.98;15.30;;;22.60;99.90;;;;;;5118441;28;20042;-75
2022/08/13 03:38:40;;;;;;;18.98;14.90;;;22.60;99.90;;;;;;5118560;28;20100;-75
2022/08/13 03:41:14;;;;;;;17.65;14.05;;;22.60;99.90;;;;;;5118400;28;20019;-74
2022/08/13 03:43:42;;;;;;;23.90;15.80;;;22.50;99.90;;;;;;5118526;28;20088;-75
2022/08/13 03:46:27;;;;;;;21.67;15.40;;;22.50;99.90;;;;;;5116256;28;20024;-75
2022/08/13 03:48:53;;;;;;;19.75;13.88;;;22.50;99.90;;;;;;5118048;28;20056;-75
2022/08/13 03:51:23;;;;;;;26.42;16.80;;;22.50;99.90;;;;;;5115080;28;20050;-74
2022/08/13 03:53:52;;;;;;;22.13;13.93;;;22.50;99.90;;;;;;5118336;28;20023;-74
2022/08/13 03:56:18;;;;;;;22.00;14.57;;;22.50;99.90;;;;;;5113426;28;20036;-74
2022/08/13 03:58:46;;;;;;;22.60;14.93;;;22.50;99.90;;;;;;5117865;28;20028;-75
2022/08/13 04:01:14;;;;;;;29.23;14.65;;;22.50;99.90;;;;;;5118133;28;20388;-74
2022/08/13 04:03:41;;;;;;;19.30;14.10;;;22.50;99.90;;;;;;5117893;28;20020;-75
2022/08/13 04:06:15;;;;;;;23.58;16.10;;;22.50;99.90;;;;;;5116162;28;20034;-74
2022/08/13 04:08:42;;;;;;;24.55;15.00;;;22.50;99.90;;;;;;5112683;28;20026;-75
2022/08/13 04:11:11;;;;;;;21.80;14.95;;;22.50;99.90;;;;;;5118301;27;20110;-74
2022/08/13 04:13:39;;;;;;;20.08;15.48;;;22.50;99.90;;;;;;5115991;28;20028;-74
2022/08/13 04:16:14;;;;;;;20.05;15.25;;;22.50;99.90;;;;;;5117294;28;20479;-74
2022/08/13 04:18:41;;;;;;;22.67;15.52;;;22.50;99.90;;;;;;5116502;28;20080;-74
2022/08/13 04:21:10;;;;;;;23.60;14.88;;;22.50;99.90;;;;;;5118005;27;20047;-74
2022/08/13 04:23:39;;;;;;;18.35;15.50;;;22.50;99.90;;;;;;5116377;28;20036;-75
2022/08/13 04:26:06;;;;;;;18.00;15.40;;;22.60;99.90;;;;;;5113619;28;20106;-75
2022/08/13 04:28:32;;;;;;;17.67;14.68;;;22.60;99.90;;;;;;5115577;28;20114;-74
2022/08/13 04:30:58;;;;;;;21.08;15.00;;;22.60;99.90;;;;;;5109046;28;20106;-75
2022/08/13 04:33:25;;;;;;;23.10;14.85;;;22.60;99.90;;;;;;5117618;28;20094;-75
2022/08/13 04:35:51;;;;;;;25.58;15.05;;;22.60;99.90;;;;;;5117507;27;20024;-75
2022/08/13 04:38:17;;;;;;;22.92;16.33;;;22.60;99.90;;;;;;5117541;28;20027;-74
2022/08/13 04:40:45;;;;;;;17.80;14.65;;;22.50;99.90;;;;;;5117474;28;20020;-76
2022/08/13 04:43:12;;;;;;;20.67;15.65;;;22.60;99.90;;;;;;5117248;28;20023;-75
2022/08/13 04:45:40;;;;;;;22.50;14.52;;;22.50;99.90;;;;;;5115711;28;20069;-75
2022/08/13 04:48:12;;;;;;;17.67;15.35;;;22.50;99.90;;;;;;5111200;28;20024;-75
2022/08/13 04:50:39;;;;;;;21.52;14.82;;;22.50;99.90;;;;;;5098236;28;20027;-75
2022/08/13 04:53:08;;;;;;;17.95;15.57;;;22.50;99.90;;;;;;5117410;28;20031;-75
2022/08/13 04:55:36;;;;;;;20.67;15.55;;;22.60;99.90;;;;;;5117453;28;20054;-75
2022/08/13 04:58:03;;;;;;;26.20;15.15;;;22.60;99.90;;;;;;5117129;28;20144;-75
2022/08/13 05:00:33;;;;;;;24.85;15.25;;;22.50;99.90;;;;;;5116997;28;20011;-74
2022/08/13 05:03:22;;;;;;;20.70;16.50;;;22.40;99.90;;;;;;5108176;28;20032;-75
2022/08/13 05:05:51;;;;;;;25.77;17.05;;;22.40;99.90;;;;;;5113876;28;20043;-75
2022/08/13 05:08:18;;;;;;;21.33;15.50;;;22.40;99.90;;;;;;5117612;28;20028;-75
2022/08/13 05:10:46;;;;;;;22.90;16.08;;;22.40;99.90;;;;;;5117158;28;20440;-75
2022/08/13 05:13:30;;;;;;;24.10;15.23;;;22.40;99.90;;;;;;5116489;28;20383;-75
2022/08/13 05:15:59;;;;;;;22.65;15.63;;;22.30;99.90;;;;;;5114755;28;20024;-75
2022/08/13 05:18:26;;;;;;;21.92;16.63;;;22.40;99.90;;;;;;5115546;28;20020;-75
2022/08/13 05:20:53;;;;;;;21.10;15.02;;;22.40;99.90;;;;;;5117311;28;20026;-75
2022/08/13 05:23:23;;;;;;;21.05;16.05;;;22.50;99.90;;;;;;5112788;28;20062;-75
2022/08/13 05:25:50;;;;;;;26.92;16.45;;;22.50;99.90;;;;;;5111124;28;20047;-74
2022/08/13 05:28:20;;;;;;;23.20;16.60;;;22.50;99.90;;;;;;5120685;28;20380;-74
2022/08/13 05:30:47;;;;;;;24.08;15.60;;;22.50;99.90;;;;;;5116512;28;20024;-74
2022/08/13 05:33:21;;;;;;;24.60;15.95;;;22.50;99.90;;;;;;5111622;28;20047;-74
2022/08/13 05:35:52;;;;;;;21.90;16.42;;;22.50;99.90;;;;;;5105911;28;20024;-75
2022/08/13 05:38:22;;;;;;;25.73;17.40;;;22.50;99.90;;;;;;5112648;28;20023;-75
2022/08/13 05:40:57;;;;;;;26.77;17.08;;;22.50;99.90;;;;;;5120807;28;20051;-75
2022/08/13 05:43:25;;;;;;;29.27;16.38;;;22.50;99.90;;;;;;5118486;28;20035;-75
2022/08/13 05:45:59;;;;;;;24.88;18.65;;;22.50;99.90;;;;;;5116104;28;20024;-75
2022/08/13 05:48:29;;;;;;;29.13;17.38;;;22.60;99.90;;;;;;5119788;28;20059;-75
2022/08/13 05:51:00;;;;;;;27.65;18.52;;;22.70;99.90;;;;;;5118602;28;20020;-75
2022/08/13 05:53:28;;;;;;;25.60;18.70;;;22.80;99.90;;;;;;5120941;28;20098;-75
2022/08/13 05:55:54;;;;;;;23.55;18.25;;;22.80;99.90;;;;;;5119335;28;20020;-75
2022/08/13 05:58:21;;;;;;;24.58;16.67;;;22.90;99.90;;;;;;5118798;28;20020;-75
2022/08/13 06:03:32;;;;;;;26.23;16.70;;;22.90;99.90;;;;;;5120765;28;20026;-75
2022/08/13 06:06:07;;;;;;;26.80;17.30;;;23.00;99.90;;;;;;5120449;28;20019;-75
2022/08/13 06:08:38;;;;;;;27.33;17.83;;;23.00;99.90;;;;;;5120367;27;20020;-75
2022/08/13 06:11:09;;;;;;;24.67;17.70;;;23.00;99.90;;;;;;5118407;28;20047;-75
2022/08/13 06:13:38;;;;;;;22.40;18.35;;;23.10;99.90;;;;;;5115465;28;20061;-75
2022/08/13 06:16:06;;;;;;;26.77;16.90;;;23.20;99.90;;;;;;5117533;28;20024;-76
2022/08/13 06:18:36;;;;;;;24.15;17.98;;;23.20;99.90;;;;;;5120057;28;20062;-75
2022/08/13 06:21:05;;;;;;;24.73;17.23;;;23.40;99.90;;;;;;5118994;28;20049;-75
2022/08/13 06:23:35;;;;;;;22.05;17.60;;;23.30;99.90;;;;;;5120058;28;20028;-75
2022/08/13 06:26:01;;;;;;;23.00;16.92;;;23.30;99.90;;;;;;5119724;28;20526;-75
2022/08/13 06:28:29;;;;;;;27.13;16.42;;;23.30;99.90;;;;;;5119677;28;20024;-76
2022/08/13 06:30:58;;;;;;;27.83;17.42;;;23.30;99.90;;;;;;5117716;28;20467;-75
2022/08/13 06:33:26;;;;;;;22.80;15.68;;;23.40;99.90;;;;;;5113696;28;20018;-75
2022/08/13 06:35:54;;;;;;;19.70;17.35;;;23.50;99.90;;;;;;5111787;28;20024;-75
2022/08/13 06:38:22;;;;;;;22.77;17.45;;;23.50;99.90;;;;;;5114149;28;20027;-76
2022/08/13 06:40:49;;;;;;;23.83;17.00;;;23.60;99.90;;;;;;5118280;28;20466;-76
2022/08/13 06:43:19;;;;;;;20.77;15.02;;;23.60;99.90;;;;;;5107034;28;20100;-73
2022/08/13 06:45:46;;;;;;;19.83;16.67;;;23.70;99.90;;;;;;5118833;28;20046;-74
2022/08/13 06:48:13;;;;;;;25.42;16.15;;;23.70;99.90;;;;;;5119342;28;20024;-73
2022/08/13 06:50:39;;;;;;;26.48;16.05;;;23.70;99.90;;;;;;5108844;28;20093;-73
2022/08/13 06:53:07;;;;;;;19.73;15.40;;;23.70;99.90;;;;;;5119364;28;20036;-73
2022/08/13 06:55:36;;;;;;;21.75;14.43;;;23.70;99.90;;;;;;5117661;28;20031;-73
2022/08/13 06:58:09;;;;;;;25.02;15.73;;;23.80;99.90;;;;;;5119297;28;20034;-73
2022/08/13 07:00:38;;;;;;;24.02;15.15;;;23.90;99.90;;;;;;5119264;28;20024;-74
2022/08/13 07:03:05;;;;;;;17.98;14.68;;;24.10;99.90;;;;;;5116288;28;20721;-73
2022/08/13 07:05:40;;;;;;;22.30;15.77;;;24.40;99.90;;;;;;5114816;28;20015;-73
2022/08/13 07:08:08;;;;;;;21.02;13.57;;;24.60;99.90;;;;;;5117795;28;20080;-73
2022/08/13 07:10:37;;;;;;;24.17;15.32;;;24.80;99.90;;;;;;5109344;28;20023;-73
2022/08/13 07:13:05;;;;;;;18.60;14.43;;;25.10;99.90;;;;;;5114118;28;20093;-74
2022/08/13 07:15:31;;;;;;;23.05;14.00;;;25.00;99.90;;;;;;5115339;28;20551;-73
2022/08/13 07:17:58;;;;;;;20.30;15.63;;;25.20;99.90;;;;;;5117348;28;20051;-73
2022/08/13 07:20:25;;;;;;;21.90;15.05;;;25.30;99.90;;;;;;5118892;28;20019;-73
2022/08/13 07:22:55;;;;;;;25.38;15.05;;;25.20;99.90;;;;;;5117541;28;20091;-74
2022/08/13 07:25:23;;;;;;;20.27;15.93;;;25.10;99.90;;;;;;5117740;28;20044;-73
2022/08/13 07:27:51;;;;;;;21.25;14.77;;;24.80;99.90;;;;;;5118416;27;20024;-74
2022/08/13 07:30:18;;;;;;;21.10;15.13;;;24.60;99.90;;;;;;5116061;28;20026;-73
2022/08/13 07:32:44;;;;;;;23.08;14.80;;;24.50;99.90;;;;;;5117198;28;20035;-73
2022/08/13 07:35:11;;;;;;;21.95;15.20;;;24.60;99.90;;;;;;5115558;28;20023;-74
2022/08/13 07:37:37;;;;;;;19.90;14.60;;;24.60;99.90;;;;;;5118631;28;20024;-73
2022/08/13 07:40:04;;;;;;;19.70;14.73;;;24.90;99.90;;;;;;5109686;28;20026;-73
2022/08/13 07:42:35;;;;;;;23.45;14.82;;;24.90;99.90;;;;;;5118314;28;20080;-73
2022/08/13 07:45:02;;;;;;;23.20;15.07;;;24.80;99.90;;;;;;5118404;28;20012;-73
2022/08/13 07:47:29;;;;;;;17.17;14.13;;;24.90;99.90;;;;;;5113728;28;20095;-74
2022/08/13 07:49:58;;;;;;;18.35;15.30;;;25.00;99.90;;;;;;5117409;28;20015;-74
2022/08/13 07:52:27;;;;;;;23.00;15.32;;;25.10;99.90;;;;;;5112524;28;20087;-73
2022/08/13 07:54:53;;;;;;;24.60;15.73;;;25.20;99.90;;;;;;5113618;28;20020;-73
2022/08/13 07:57:19;;;;;;;22.15;14.80;;;25.50;99.90;;;;;;5115295;28;20051;-74
2022/08/13 07:59:44;;;;;;;25.25;14.50;;;25.50;99.90;;;;;;5118147;28;20028;-73
2022/08/13 08:02:12;;;;;;;23.92;15.35;;;25.50;99.90;;;;;;5116511;28;20019;-74
2022/08/13 08:04:37;;;;;;;24.60;14.43;;;25.50;99.90;;;;;;5116708;28;20161;-72
2022/08/13 08:07:04;;;;;;;18.05;13.82;;;25.60;99.90;;;;;;5118044;28;20070;-73
2022/08/13 08:09:31;;;;;;;21.33;13.65;;;25.70;99.90;;;;;;5117236;28;20057;-73
2022/08/13 08:14:44;;;;;;;18.63;13.57;;;26.20;99.90;;;;;;5117976;28;20568;-73
2022/08/13 08:17:11;;;;;;;17.85;13.60;;;26.30;99.90;;;;;;5118076;28;20020;-74
2022/08/13 08:19:41;;;;;;;17.65;13.30;;;26.50;99.90;;;;;;5117478;28;20016;-74
2022/08/13 08:22:10;;;;;;;18.80;14.02;;;26.50;99.90;;;;;;5117347;28;20106;-74
2022/08/13 08:24:38;;;;;;;20.63;14.85;;;26.50;99.90;;;;;;5117401;28;20462;-74
2022/08/13 08:27:11;;;;;;;18.00;14.68;;;26.60;99.90;;;;;;5116966;28;20048;-74
2022/08/13 08:29:40;;;;;;;15.85;13.05;;;26.60;99.90;;;;;;5117726;28;20120;-73
2022/08/13 08:32:10;;;;;;;21.67;13.65;;;26.50;99.90;;;;;;5099380;28;20114;-75
2022/08/13 08:34:38;;;;;;;20.02;13.15;;;26.40;99.90;;;;;;5114567;28;20499;-75
2022/08/13 08:37:05;;;;;;;18.67;14.45;;;26.30;99.90;;;;;;5117878;28;20028;-75
2022/08/13 08:44:49;;;;;;;17.52;12.65;;;26.20;99.90;;;;;;5117019;28;20028;-75
2022/08/13 08:47:15;;;;;;;15.55;12.82;;;26.10;99.90;;;;;;5117255;28;20055;-75
2022/08/13 08:49:43;;;;;;;19.42;13.68;;;26.00;99.90;;;;;;5117121;28;20023;-75
2022/08/13 08:52:10;;;;;;;15.43;13.77;;;26.00;99.90;;;;;;5116762;28;20020;-75
2022/08/13 08:54:38;;;;;;;21.00;13.75;;;26.10;99.90;;;;;;5103220;28;20166;-75
2022/08/13 08:57:04;;;;;;;21.50;14.02;;;26.30;99.90;;;;;;5116342;28;20049;-75
2022/08/13 08:59:35;;;;;;;25.58;13.88;;;26.40;99.90;;;;;;5116869;28;20073;-75
2022/08/13 09:02:16;;;;;;;18.45;13.30;;;26.40;99.90;;;;;;5120308;28;20007;-75
2022/08/13 09:04:44;;;;;;;23.08;13.77;;;26.30;99.90;;;;;;5111396;28;20107;-75
2022/08/13 09:07:10;;;;;;;16.88;13.68;;;26.30;99.90;;;;;;5117540;28;20391;-76
2022/08/13 09:09:36;;;;;;;14.30;12.45;;;26.50;99.90;;;;;;5121938;28;20027;-76
2022/08/13 09:12:03;;;;;;;18.40;12.65;;;26.70;99.90;;;;;;5106840;28;20069;-76
2022/08/13 09:14:32;;;;;;;17.95;12.68;;;26.90;99.90;;;;;;5110339;28;20031;-75
2022/08/13 09:17:02;;;;;;;18.42;12.43;;;27.10;99.90;;;;;;5114704;28;20031;-75
2022/08/13 09:19:28;;;;;;;16.20;13.15;;;27.20;99.90;;;;;;5111934;28;20058;-75
2022/08/13 09:21:57;;;;;;;20.33;12.50;;;27.30;99.90;;;;;;5120167;28;20016;-76
2022/08/13 09:24:24;;;;;;;13.48;11.50;;;27.40;99.90;;;;;;5119160;28;20028;-76
2022/08/13 09:26:51;;;;;;;17.13;12.48;;;27.60;99.90;;;;;;5120429;28;20132;-76
2022/08/13 09:29:19;;;;;;;18.40;13.60;;;27.80;99.90;;;;;;5120547;28;20056;-75
2022/08/13 09:31:48;;;;;;;19.33;13.85;;;27.80;99.90;;;;;;5121019;28;20384;-75
2022/08/13 09:34:14;;;;;;;18.38;12.63;;;27.80;99.90;;;;;;5112099;28;20020;-75
2022/08/13 09:36:41;;;;;;;15.95;12.07;;;27.80;99.90;;;;;;5119697;28;20020;-76
2022/08/13 09:39:07;;;;;;;18.58;13.00;;;27.90;99.90;;;;;;5118392;28;20036;-76
2022/08/13 09:41:36;;;;;;;17.05;11.85;;;28.10;99.90;;;;;;5119601;28;20028;-75
2022/08/13 09:44:04;;;;;;;21.13;12.77;;;28.30;99.90;;;;;;5120859;28;20019;-76
2022/08/13 09:46:34;;;;;;;15.45;12.35;;;28.50;99.90;;;;;;5100241;28;20266;-76
2022/08/13 09:49:00;;;;;;;16.73;12.50;;;28.60;99.90;;;;;;5099487;28;20036;-76
2022/08/13 09:51:32;;;;;;;19.25;11.73;;;28.60;99.90;;;;;;5120099;28;20511;-75
2022/08/13 09:53:58;;;;;;;19.67;12.40;;;28.70;99.90;;;;;;5105788;28;20400;-76
2022/08/13 09:56:24;;;;;;;19.83;12.55;;;29.00;99.90;;;;;;5120949;28;20035;-76
2022/08/13 09:58:51;;;;;;;24.52;12.40;;;29.10;99.90;;;;;;5120848;28;20027;-76
2022/08/13 10:01:20;;;;;;;16.52;11.95;;;29.00;99.90;;;;;;5120965;28;20094;-76
2022/08/13 10:03:48;;;;;;;16.98;12.27;;;29.10;99.90;;;;;;5120589;28;20028;-76
2022/08/13 10:06:18;;;;;;;18.13;10.80;;;29.20;99.90;;;;;;5120827;28;20065;-76
2022/08/13 10:08:48;;;;;;;20.33;13.18;;;29.30;99.90;;;;;;5120515;28;20019;-76
2022/08/13 10:11:15;;;;;;;16.17;12.00;;;29.30;99.90;;;;;;5120855;28;20055;-76
2022/08/13 10:13:41;;;;;;;23.05;12.48;;;29.10;99.90;;;;;;5103964;28;20020;-76
2022/08/13 10:16:07;;;;;;;14.23;11.20;;;29.20;99.90;;;;;;5120602;28;20035;-76
2022/08/13 10:18:33;;;;;;;15.25;11.68;;;29.30;99.90;;;;;;5119259;28;20020;-76
2022/08/13 10:20:59;;;;;;;15.43;11.60;;;29.40;99.90;;;;;;5119183;28;20035;-76
2022/08/13 10:23:25;;;;;;;18.08;12.43;;;29.50;99.90;;;;;;5118930;28;20020;-75
2022/08/13 10:25:52;;;;;;;14.90;11.88;;;29.30;99.90;;;;;;5104191;28;20055;-76
2022/08/13 10:28:31;;;;;;;18.10;12.48;;;29.20;99.90;;;;;;5101447;28;20019;-75
2022/08/13 10:31:07;;;;;;;18.67;12.55;;;29.10;99.90;;;;;;5120390;27;20027;-76
2022/08/13 10:33:34;;;;;;;16.98;11.80;;;29.40;99.90;;;;;;5120386;28;20024;-77
2022/08/13 10:35:59;;;;;;;17.27;12.68;;;29.40;99.90;;;;;;5105190;28;20032;-76
2022/08/13 10:38:26;;;;;;;18.95;13.30;;;29.30;99.90;;;;;;5106515;28;20032;-76
2022/08/13 10:41:07;;;;;;;21.75;13.45;;;29.30;99.90;;;;;;5105072;28;20026;-76
2022/08/13 10:43:40;;;;;;;18.13;13.00;;;29.20;99.90;;;;;;5118365;28;20399;-76
2022/08/13 10:46:11;;;;;;;20.08;14.00;;;29.20;99.90;;;;;;5119889;28;20023;-76
2022/08/13 10:48:38;;;;;;;20.83;13.18;;;29.20;99.90;;;;;;5120225;27;20035;-75
2022/08/13 10:51:04;;;;;;;17.52;13.50;;;29.40;99.90;;;;;;5119699;28;20049;-75
2022/08/13 10:56:17;;;;;;;17.92;13.27;;;29.50;99.90;;;;;;5118113;28;20041;-74
2022/08/13 10:58:43;;;;;;;18.95;13.95;;;29.40;99.90;;;;;;5117568;28;20383;-76
2022/08/13 11:01:10;;;;;;;20.85;14.05;;;29.60;99.90;;;;;;5118047;28;20102;-76
2022/08/13 11:03:37;;;;;;;24.25;11.82;;;29.70;99.90;;;;;;5117911;28;20028;-76
2022/08/13 11:06:06;;;;;;;17.25;13.00;;;29.90;99.90;;;;;;5119327;28;20467;-75
2022/08/13 11:08:36;;;;;;;15.05;12.32;;;30.00;99.90;;;;;;5117882;28;20038;-75
2022/08/13 11:11:04;;;;;;;15.80;12.88;;;30.20;99.90;;;;;;5105739;28;20011;-75
2022/08/13 11:13:31;;;;;;;16.63;12.02;;;30.40;99.90;;;;;;5118974;28;20062;-76
2022/08/13 11:15:58;;;;;;;15.65;12.25;;;30.40;99.90;;;;;;5117702;28;20008;-76
2022/08/13 11:18:26;;;;;;;17.33;12.57;;;30.70;99.90;;;;;;5119184;28;20034;-76
2022/08/13 11:21:08;;;;;;;15.68;12.32;;;30.90;99.90;;;;;;5116686;28;20068;-76
2022/08/13 11:23:35;;;;;;;16.48;11.82;;;31.10;99.90;;;;;;5098874;28;20059;-76
2022/08/13 11:26:02;;;;;;;16.10;12.35;;;31.20;99.90;;;;;;5114332;28;20431;-76
2022/08/13 11:28:28;;;;;;;21.05;13.63;;;31.00;99.70;;;;;;5103828;28;20102;-76
2022/08/13 11:30:57;;;;;;;16.45;12.13;;;31.00;99.90;;;;;;5117863;28;20054;-76
2022/08/13 11:33:25;;;;;;;15.07;12.27;;;31.20;99.90;;;;;;5115835;28;20031;-76
2022/08/13 11:35:54;;;;;;;17.20;12.27;;;31.20;99.40;;;;;;5118806;28;20102;-76
2022/08/13 11:38:21;;;;;;;15.82;10.90;;;31.20;99.70;;;;;;5117667;28;20426;-76
2022/08/13 11:40:53;;;;;;;14.93;10.15;;;31.40;99.50;;;;;;5118756;28;20487;-76
2022/08/13 11:43:21;;;;;;;18.63;11.27;;;31.50;99.10;;;;;;5117255;28;20027;-76
2022/08/13 11:45:48;;;;;;;18.35;12.38;;;31.50;98.20;;;;;;5116107;28;20074;-75
2022/08/13 11:48:14;;;;;;;18.80;12.30;;;31.40;98.00;;;;;;5112525;28;20019;-75
2022/08/13 11:50:40;;;;;;;17.42;11.60;;;31.20;98.00;;;;;;5109295;28;20040;-75
2022/08/13 11:53:06;;;;;;;16.27;11.38;;;31.20;98.70;;;;;;5117332;28;20419;-76
2022/08/13 11:55:31;;;;;;;16.23;10.82;;;31.50;98.30;;;;;;5117927;28;20077;-75
2022/08/13 11:58:03;;;;;;;13.50;11.52;;;31.50;98.20;;;;;;5118232;28;20069;-76
2022/08/13 12:00:29;;;;;;;17.65;12.02;;;31.70;98.00;;;;;;5115340;28;20019;-76
2022/08/13 12:02:54;;;;;;;18.83;11.18;;;31.80;97.00;;;;;;5116523;28;20024;-76
2022/08/13 12:05:20;;;;;;;14.82;11.32;;;31.90;97.20;;;;;;5118073;28;20137;-75
2022/08/13 12:07:46;;;;;;;13.95;10.68;;;31.90;97.10;;;;;;5116723;28;20052;-76
2022/08/13 12:10:12;;;;;;;14.95;11.75;;;32.10;97.10;;;;;;5118103;28;20030;-76
2022/08/13 12:12:38;;;;;;;20.38;11.57;;;32.10;96.30;;;;;;5116455;28;20445;-75
2022/08/13 12:15:05;;;;;;;12.75;10.98;;;32.20;95.70;;;;;;5116604;28;20016;-76
2022/08/13 12:17:31;;;;;;;13.30;11.05;;;32.40;96.00;;;;;;5115634;28;20042;-75
2022/08/13 12:19:58;;;;;;;13.35;11.00;;;32.50;95.60;;;;;;5126946;27;20080;-75
2022/08/13 12:22:23;;;;;;;14.75;11.57;;;32.50;94.70;;;;;;5118022;28;20031;-75
2022/08/13 12:24:51;;;;;;;15.80;10.88;;;32.50;94.60;;;;;;5111878;28;20059;-75
2022/08/13 12:27:18;;;;;;;15.27;11.55;;;32.30;94.60;;;;;;5117806;28;20019;-76
2022/08/13 12:29:44;;;;;;;16.10;11.52;;;32.40;93.90;;;;;;5116254;28;20023;-75
2022/08/13 12:32:10;;;;;;;16.13;11.18;;;32.40;94.20;;;;;;5116375;28;20114;-76
2022/08/13 12:34:37;;;;;;;14.15;11.45;;;32.30;94.00;;;;;;5116074;28;20102;-76
2022/08/13 12:37:03;;;;;;;16.88;11.05;;;32.40;93.70;;;;;;5115805;28;20044;-77
2022/08/13 12:39:29;;;;;;;16.17;10.68;;;32.30;93.60;;;;;;5116155;28;20033;-76
2022/08/13 12:41:55;;;;;;;14.40;11.05;;;32.50;93.60;;;;;;5117577;28;20023;-75
2022/08/13 12:44:21;;;;;;;17.13;10.52;;;32.60;93.40;;;;;;5114822;28;20019;-76
2022/08/13 12:46:47;;;;;;;12.88;11.10;;;32.70;93.30;;;;;;5117427;28;20027;-77
2022/08/13 12:49:13;;;;;;;16.88;11.48;;;32.70;93.10;;;;;;5117490;28;20020;-77
2022/08/13 12:51:42;;;;;;;16.20;9.77;;;32.60;93.20;;;;;;5108298;28;20123;-76
2022/08/13 12:54:08;;;;;;;14.68;9.90;;;32.80;93.30;;;;;;5117566;28;20024;-77
2022/08/13 12:56:34;;;;;;;14.10;10.38;;;33.10;92.70;;;;;;5117232;28;20172;-77